createdAt,value
2023-04-09T00:01:46.720Z,89.30
2023-04-09T00:03:51.855Z,89.30
2023-04-09T00:05:57.956Z,88.80
2023-04-09T00:08:02.965Z,88.80
2023-04-09T00:10:12.419Z,88.80
2023-04-09T00:12:17.471Z,88.80
2023-04-09T00:14:23.089Z,88.70
2023-04-09T00:16:28.305Z,88.60
2023-04-09T00:18:33.349Z,88.50
2023-04-09T00:20:38.633Z,88.90
2023-04-09T00:22:43.641Z,88.70
2023-04-09T00:24:49.279Z,88.90
2023-04-09T00:26:57.131Z,88.50
2023-04-09T00:29:02.211Z,88.30
2023-04-09T00:31:07.873Z,88.50
2023-04-09T00:33:12.942Z,88.60
2023-04-09T00:35:19.000Z,89.10
2023-04-09T00:37:24.367Z,89.00
2023-04-09T00:39:29.555Z,89.20
2023-04-09T00:41:34.993Z,89.10
2023-04-09T00:43:42.623Z,89.40
2023-04-09T00:45:48.190Z,89.20
2023-04-09T00:47:54.080Z,89.20
2023-04-09T00:49:59.489Z,89.00
2023-04-09T00:52:05.119Z,89.50
2023-04-09T00:54:10.849Z,89.50
2023-04-09T00:56:16.703Z,89.30
2023-04-09T00:58:21.868Z,89.40
2023-04-09T01:00:29.787Z,89.80
2023-04-09T01:02:35.615Z,89.30
2023-04-09T01:04:43.282Z,89.40
2023-04-09T01:06:55.437Z,89.70
2023-04-09T01:09:09.104Z,89.50
2023-04-09T01:11:26.925Z,89.70
2023-04-09T01:13:42.456Z,89.90
2023-04-09T01:15:55.035Z,89.70
2023-04-09T01:18:10.308Z,89.60
2023-04-09T01:20:21.417Z,89.80
2023-04-09T01:22:39.859Z,90.10
2023-04-09T01:25:00.696Z,89.70
2023-04-09T01:27:14.828Z,90.00
2023-04-09T01:29:42.193Z,89.90
2023-04-09T01:31:48.461Z,90.20
2023-04-09T01:33:55.446Z,90.10
2023-04-09T01:36:01.690Z,90.30
2023-04-09T01:38:07.979Z,90.20
2023-04-09T01:40:14.380Z,90.30
2023-04-09T01:42:20.553Z,90.00
2023-04-09T01:44:27.801Z,90.10
2023-04-09T01:46:36.975Z,90.20
2023-04-09T01:48:42.975Z,90.10
2023-04-09T01:50:48.819Z,90.20
2023-04-09T01:52:54.704Z,90.30
2023-04-09T01:54:59.766Z,90.60
2023-04-09T01:57:04.781Z,90.50
2023-04-09T01:59:09.849Z,90.60
2023-04-09T02:01:23.520Z,90.90
2023-04-09T02:03:38.338Z,90.70
2023-04-09T02:05:55.930Z,90.70
2023-04-09T02:08:07.740Z,90.90
2023-04-09T02:10:17.500Z,91.00
2023-04-09T02:12:24.445Z,91.10
2023-04-09T02:14:31.234Z,91.00
2023-04-09T02:16:37.102Z,91.20
2023-04-09T02:18:45.107Z,91.20
2023-04-09T02:20:50.113Z,90.70
2023-04-09T02:22:55.118Z,90.40
2023-04-09T02:25:00.168Z,90.60
2023-04-09T02:27:06.306Z,90.60
2023-04-09T02:29:11.383Z,90.40
2023-04-09T02:31:16.640Z,90.70
2023-04-09T02:33:22.070Z,90.40
2023-04-09T02:35:29.885Z,90.40
2023-04-09T02:37:35.065Z,90.30
2023-04-09T02:39:40.114Z,90.30
2023-04-09T02:41:45.111Z,90.30
2023-04-09T02:43:50.409Z,90.70
2023-04-09T02:45:55.864Z,90.50
2023-04-09T02:48:00.903Z,90.30
2023-04-09T02:50:11.727Z,90.50
2023-04-09T02:52:27.093Z,90.70
2023-04-09T02:54:32.128Z,90.90
2023-04-09T02:56:37.286Z,91.00
2023-04-09T02:58:42.522Z,90.90
2023-04-09T03:00:47.838Z,90.70
2023-04-09T03:02:55.864Z,90.90
2023-04-09T03:05:01.510Z,90.90
2023-04-09T03:07:06.572Z,91.10
2023-04-09T03:09:14.188Z,90.80
2023-04-09T03:11:19.448Z,90.90
2023-04-09T03:13:24.741Z,90.90
2023-04-09T03:15:30.383Z,91.00
2023-04-09T03:17:35.452Z,90.90
2023-04-09T03:19:40.564Z,91.00
2023-04-09T03:21:46.658Z,90.90
2023-04-09T03:23:51.681Z,90.90
2023-04-09T03:26:07.220Z,90.90
2023-04-09T03:28:19.878Z,90.90
2023-04-09T03:30:29.802Z,91.00
2023-04-09T03:32:36.327Z,91.30
2023-04-09T03:34:42.554Z,91.50
2023-04-09T03:36:48.163Z,91.40
2023-04-09T03:39:01.131Z,91.30
2023-04-09T03:41:16.621Z,91.20
2023-04-09T03:43:21.790Z,90.90
2023-04-09T03:45:30.177Z,91.10
2023-04-09T03:47:49.208Z,90.90
2023-04-09T03:49:56.766Z,91.30
2023-04-09T03:52:05.972Z,91.00
2023-04-09T03:54:15.959Z,91.20
2023-04-09T03:56:24.617Z,91.40
2023-04-09T03:58:29.722Z,91.10
2023-04-09T04:00:35.946Z,91.00
2023-04-09T04:02:59.718Z,91.50
2023-04-09T04:05:28.493Z,91.60
2023-04-09T04:07:37.647Z,91.30
2023-04-09T04:09:48.000Z,91.50
2023-04-09T04:11:59.006Z,91.50
2023-04-09T04:14:16.770Z,91.30
2023-04-09T04:16:26.070Z,91.50
2023-04-09T04:18:33.358Z,91.50
2023-04-09T04:20:38.880Z,91.60
2023-04-09T04:22:48.572Z,91.50
2023-04-09T04:24:54.265Z,91.60
2023-04-09T04:27:03.697Z,91.60
2023-04-09T04:29:12.619Z,91.50
2023-04-09T04:31:27.698Z,91.30
2023-04-09T04:33:36.779Z,91.10
2023-04-09T04:35:45.965Z,91.10
2023-04-09T04:38:07.997Z,91.10
2023-04-09T04:40:16.237Z,91.20
2023-04-09T04:42:23.956Z,91.70
2023-04-09T04:44:29.284Z,91.80
2023-04-09T04:46:43.674Z,91.90
2023-04-09T04:48:49.593Z,91.60
2023-04-09T04:51:02.411Z,91.30
2023-04-09T04:53:18.572Z,91.70
2023-04-09T04:55:28.271Z,91.80
2023-04-09T04:57:36.616Z,92.00
2023-04-09T04:59:43.214Z,92.20
2023-04-09T05:01:50.690Z,91.90
2023-04-09T05:03:56.508Z,92.00
2023-04-09T05:06:12.484Z,91.90
2023-04-09T05:08:21.585Z,91.70
2023-04-09T05:10:30.183Z,91.70
2023-04-09T05:12:39.468Z,92.20
2023-04-09T05:14:46.631Z,92.10
2023-04-09T05:16:52.411Z,91.90
2023-04-09T05:19:02.395Z,91.90
2023-04-09T05:21:08.217Z,91.60
2023-04-09T05:23:14.224Z,91.70
2023-04-09T05:25:24.022Z,91.80
2023-04-09T05:27:29.893Z,91.70
2023-04-09T05:29:41.844Z,91.50
2023-04-09T05:31:48.879Z,91.60
2023-04-09T05:34:06.657Z,91.60
2023-04-09T05:36:19.562Z,91.90
2023-04-09T05:38:24.624Z,92.30
2023-04-09T05:40:35.609Z,92.00
2023-04-09T05:42:44.423Z,91.90
2023-04-09T05:44:59.002Z,91.70
2023-04-09T05:47:04.180Z,91.70
2023-04-09T05:49:17.904Z,91.50
2023-04-09T05:51:25.716Z,91.70
2023-04-09T05:53:31.544Z,91.80
2023-04-09T05:55:37.042Z,91.70
2023-04-09T05:57:42.405Z,91.50
2023-04-09T05:59:48.377Z,91.40
2023-04-09T06:01:56.442Z,91.40
2023-04-09T06:04:02.367Z,90.90
2023-04-09T06:06:09.132Z,90.80
2023-04-09T06:08:14.560Z,91.00
2023-04-09T06:10:20.441Z,90.70
2023-04-09T06:12:26.769Z,90.50
2023-04-09T06:14:33.332Z,89.90
2023-04-09T06:16:38.431Z,90.20
2023-04-09T06:18:46.873Z,90.20
2023-04-09T06:20:52.304Z,90.70
2023-04-09T06:22:57.790Z,90.50
2023-04-09T06:25:03.217Z,90.80
2023-04-09T06:27:08.348Z,90.60
2023-04-09T06:29:13.595Z,90.00
2023-04-09T06:31:19.151Z,89.50
2023-04-09T06:33:24.348Z,89.80
2023-04-09T06:35:32.164Z,89.60
2023-04-09T06:37:37.338Z,90.00
2023-04-09T06:39:50.644Z,89.90
2023-04-09T06:41:59.465Z,89.20
2023-04-09T06:44:17.144Z,89.00
2023-04-09T06:46:22.651Z,89.40
2023-04-09T06:48:27.862Z,88.70
2023-04-09T06:50:35.509Z,88.90
2023-04-09T06:52:40.832Z,89.40
2023-04-09T06:54:46.293Z,89.30
2023-04-09T06:56:52.013Z,88.80
2023-04-09T06:58:57.262Z,88.60
2023-04-09T07:01:02.973Z,87.80
2023-04-09T07:03:09.463Z,87.60
2023-04-09T07:05:14.763Z,88.00
2023-04-09T07:07:24.377Z,88.30
2023-04-09T07:09:31.715Z,87.80
2023-04-09T07:11:37.186Z,86.90
2023-04-09T07:13:42.230Z,87.10
2023-04-09T07:15:47.387Z,87.30
2023-04-09T07:17:52.494Z,86.90
2023-04-09T07:19:57.716Z,86.80
2023-04-09T07:22:02.741Z,85.20
2023-04-09T07:24:10.742Z,85.80
2023-04-09T07:26:15.757Z,85.30
2023-04-09T07:28:21.524Z,85.40
2023-04-09T07:30:27.562Z,85.60
2023-04-09T07:32:32.897Z,85.80
2023-04-09T07:34:37.933Z,84.00
2023-04-09T07:36:43.391Z,83.30
2023-04-09T07:38:48.789Z,83.60
2023-04-09T07:40:56.616Z,83.50
2023-04-09T07:43:01.790Z,82.10
2023-04-09T07:45:07.830Z,82.90
2023-04-09T07:47:13.323Z,82.60
2023-04-09T07:49:18.967Z,79.60
2023-04-09T07:51:24.007Z,80.60
2023-04-09T07:53:29.306Z,81.60
2023-04-09T07:55:34.372Z,79.30
2023-04-09T07:57:43.174Z,78.60
2023-04-09T07:59:48.400Z,79.60
2023-04-09T08:01:53.787Z,79.60
2023-04-09T08:03:59.057Z,78.60
2023-04-09T08:06:04.269Z,78.00
2023-04-09T08:08:09.598Z,78.20
2023-04-09T08:10:16.502Z,77.20
2023-04-09T08:12:21.538Z,76.60
2023-04-09T08:14:29.201Z,79.40
2023-04-09T08:16:34.325Z,78.70
2023-04-09T08:18:39.925Z,78.70
2023-04-09T08:20:45.723Z,76.70
2023-04-09T08:22:50.948Z,74.80
2023-04-09T08:24:56.482Z,75.00
2023-04-09T08:27:01.995Z,74.50
2023-04-09T08:29:07.599Z,76.30
2023-04-09T08:31:15.873Z,74.50
2023-04-09T08:33:21.192Z,73.80
2023-04-09T08:35:26.227Z,75.80
2023-04-09T08:37:31.228Z,70.90
2023-04-09T08:39:36.545Z,74.20
2023-04-09T08:41:46.779Z,74.10
2023-04-09T08:43:58.318Z,73.00
2023-04-09T08:46:04.846Z,70.00
2023-04-09T08:48:13.442Z,72.30
2023-04-09T08:50:18.808Z,69.20
2023-04-09T08:52:35.132Z,69.90
2023-04-09T08:54:40.827Z,67.60
2023-04-09T08:56:46.074Z,69.90
2023-04-09T08:58:53.075Z,68.10
2023-04-09T09:00:58.518Z,64.80
2023-04-09T09:03:08.743Z,66.00
2023-04-09T09:05:16.378Z,67.40
2023-04-09T09:07:21.474Z,65.50
2023-04-09T09:09:26.990Z,71.30
2023-04-09T09:11:33.118Z,65.90
2023-04-09T09:13:38.159Z,66.90
2023-04-09T09:15:43.308Z,68.00
2023-04-09T09:17:58.406Z,66.30
2023-04-09T09:20:25.835Z,63.30
2023-04-09T09:22:30.874Z,63.00
2023-04-09T09:24:36.726Z,63.10
2023-04-09T09:26:42.339Z,62.40
2023-04-09T09:28:48.346Z,61.10
2023-04-09T09:30:53.552Z,62.10
2023-04-09T09:33:09.515Z,60.60
2023-04-09T09:35:14.896Z,63.70
2023-04-09T09:37:32.983Z,61.60
2023-04-09T09:39:47.170Z,61.40
2023-04-09T09:42:09.507Z,59.60
2023-04-09T09:44:32.897Z,59.40
2023-04-09T09:46:41.249Z,60.30
2023-04-09T09:48:50.178Z,61.50
2023-04-09T09:50:55.846Z,61.70
2023-04-09T09:53:07.191Z,58.80
2023-04-09T09:55:16.307Z,58.70
2023-04-09T09:57:24.663Z,60.70
2023-04-09T09:59:37.205Z,60.50
2023-04-09T10:01:44.162Z,57.80
2023-04-09T10:03:52.756Z,57.00
2023-04-09T10:05:59.088Z,59.50
2023-04-09T10:08:07.194Z,56.50
2023-04-09T10:10:12.796Z,57.10
2023-04-09T10:12:18.765Z,54.60
2023-04-09T10:14:24.668Z,55.60
2023-04-09T10:16:31.391Z,60.10
2023-04-09T10:18:36.953Z,59.70
2023-04-09T10:20:49.606Z,60.60
2023-04-09T10:22:56.273Z,58.10
2023-04-09T10:25:04.143Z,59.00
2023-04-09T10:27:19.756Z,58.60
2023-04-09T10:29:31.758Z,61.10
2023-04-09T10:31:56.369Z,54.00
2023-04-09T10:34:08.213Z,51.80
2023-04-09T10:36:15.862Z,50.40
2023-04-09T10:38:35.651Z,53.60
2023-04-09T10:40:52.279Z,53.40
2023-04-09T10:42:58.813Z,57.30
2023-04-09T10:45:12.041Z,56.30
2023-04-09T10:47:34.235Z,58.40
2023-04-09T10:49:41.380Z,57.00
2023-04-09T10:51:54.369Z,61.30
2023-04-09T10:53:59.402Z,57.60
2023-04-09T10:56:19.370Z,52.70
2023-04-09T10:58:24.762Z,54.90
2023-04-09T11:00:30.500Z,56.70
2023-04-09T11:03:08.387Z,55.20
2023-04-09T11:05:25.417Z,51.60
2023-04-09T11:07:33.198Z,51.30
2023-04-09T11:09:38.712Z,55.10
2023-04-09T11:11:46.549Z,56.20
2023-04-09T11:13:52.112Z,52.10
2023-04-09T11:15:58.948Z,54.90
2023-04-09T11:18:07.192Z,56.00
2023-04-09T11:20:14.036Z,58.20
2023-04-09T11:22:19.307Z,52.80
2023-04-09T11:24:25.931Z,53.40
2023-04-09T11:26:39.472Z,57.20
2023-04-09T11:28:47.738Z,52.10
2023-04-09T11:30:54.898Z,51.30
2023-04-09T11:33:00.372Z,52.80
2023-04-09T11:35:05.598Z,52.30
2023-04-09T11:37:17.329Z,54.60
2023-04-09T11:39:22.625Z,52.50
2023-04-09T11:41:37.386Z,50.20
2023-04-09T11:43:42.630Z,50.80
2023-04-09T11:45:50.850Z,48.40
2023-04-09T11:47:56.592Z,46.60
2023-04-09T11:50:02.165Z,51.10
2023-04-09T11:52:08.013Z,46.60
2023-04-09T11:54:15.567Z,48.10
2023-04-09T11:56:20.709Z,46.60
2023-04-09T11:58:26.933Z,43.00
2023-04-09T12:00:32.570Z,44.90
2023-04-09T12:02:42.053Z,44.00
2023-04-09T12:04:53.371Z,44.60
2023-04-09T12:07:00.705Z,44.10
2023-04-09T12:09:06.161Z,46.10
2023-04-09T12:11:13.018Z,43.60
2023-04-09T12:13:18.061Z,44.60
2023-04-09T12:15:25.615Z,42.90
2023-04-09T12:17:30.759Z,44.70
2023-04-09T12:19:39.946Z,48.10
2023-04-09T12:21:53.106Z,43.40
2023-04-09T12:23:57.949Z,44.30
2023-04-09T12:26:03.633Z,45.50
2023-04-09T12:28:10.488Z,44.90
2023-04-09T12:30:15.784Z,44.90
2023-04-09T12:32:20.813Z,39.90
2023-04-09T12:34:27.752Z,48.00
2023-04-09T12:36:35.378Z,40.60
2023-04-09T12:38:40.540Z,41.90
2023-04-09T12:40:45.591Z,41.00
2023-04-09T12:42:50.986Z,41.20
2023-04-09T12:44:56.112Z,43.60
2023-04-09T12:47:01.592Z,41.60
2023-04-09T12:49:06.616Z,41.00
2023-04-09T12:51:12.068Z,41.30
2023-04-09T12:53:19.700Z,41.90
2023-04-09T12:55:25.465Z,42.70
2023-04-09T12:57:31.074Z,42.70
2023-04-09T12:59:36.137Z,41.90
2023-04-09T13:01:43.301Z,40.90
2023-04-09T13:03:48.826Z,44.30
2023-04-09T13:05:54.340Z,44.60
2023-04-09T13:07:59.324Z,43.70
2023-04-09T13:10:07.618Z,47.30
2023-04-09T13:12:12.805Z,41.90
2023-04-09T13:14:17.858Z,40.30
2023-04-09T13:16:22.905Z,38.30
2023-04-09T13:18:27.931Z,42.90
2023-04-09T13:20:33.396Z,38.20
2023-04-09T13:22:39.273Z,38.50
2023-04-09T13:24:44.437Z,36.60
2023-04-09T13:26:52.851Z,37.50
2023-04-09T13:28:58.782Z,38.30
2023-04-09T13:31:04.187Z,39.80
2023-04-09T13:33:09.967Z,41.70
2023-04-09T13:35:15.277Z,41.60
2023-04-09T13:37:20.561Z,36.40
2023-04-09T13:39:25.574Z,35.70
2023-04-09T13:41:31.829Z,34.10
2023-04-09T13:43:39.648Z,37.90
2023-04-09T13:45:44.944Z,37.50
2023-04-09T13:47:50.448Z,40.40
2023-04-09T13:49:55.953Z,40.90
2023-04-09T13:52:01.303Z,39.50
2023-04-09T13:54:08.202Z,39.50
2023-04-09T13:56:13.367Z,39.80
2023-04-09T13:58:18.976Z,40.10
2023-04-09T14:00:27.765Z,40.00
2023-04-09T14:02:33.162Z,39.10
2023-04-09T14:04:38.505Z,35.80
2023-04-09T14:06:44.598Z,37.00
2023-04-09T14:08:49.813Z,35.00
2023-04-09T14:10:54.878Z,33.90
2023-04-09T14:13:00.165Z,32.40
2023-04-09T14:15:05.248Z,35.50
2023-04-09T14:17:13.401Z,32.60
2023-04-09T14:19:18.632Z,31.50
2023-04-09T14:21:24.049Z,32.40
2023-04-09T14:23:29.565Z,32.80
2023-04-09T14:25:34.608Z,30.30
2023-04-09T14:27:40.153Z,30.50
2023-04-09T14:29:45.227Z,26.30
2023-04-09T14:31:53.463Z,28.80
2023-04-09T14:34:01.906Z,28.70
2023-04-09T14:36:07.828Z,28.80
2023-04-09T14:38:13.133Z,28.10
2023-04-09T14:40:18.215Z,30.80
2023-04-09T14:42:23.463Z,32.30
2023-04-09T14:44:28.547Z,30.60
2023-04-09T14:46:33.844Z,29.80
2023-04-09T14:48:39.529Z,31.20
2023-04-09T14:50:47.196Z,33.80
2023-04-09T14:52:52.989Z,34.90
2023-04-09T14:54:58.001Z,35.80
2023-04-09T14:57:03.891Z,35.80
2023-04-09T14:59:09.799Z,36.70
2023-04-09T15:01:14.839Z,38.10
2023-04-09T15:03:20.268Z,37.70
2023-04-09T15:05:25.930Z,37.50
2023-04-09T15:07:34.020Z,37.80
2023-04-09T15:09:39.069Z,39.20
2023-04-09T15:11:44.290Z,39.80
2023-04-09T15:13:49.431Z,40.30
2023-04-09T15:15:54.678Z,37.50
2023-04-09T15:18:06.045Z,35.70
2023-04-09T15:20:13.999Z,34.60
2023-04-09T15:22:19.164Z,37.00
2023-04-09T15:24:26.833Z,35.10
2023-04-09T15:26:33.310Z,32.20
2023-04-09T15:28:38.720Z,31.30
2023-04-09T15:30:43.819Z,33.40
2023-04-09T15:32:49.207Z,37.60
2023-04-09T15:34:54.432Z,35.00
2023-04-09T15:36:59.526Z,37.70
2023-04-09T15:39:06.731Z,37.40
2023-04-09T15:41:16.941Z,35.60
2023-04-09T15:43:23.393Z,35.90
2023-04-09T15:45:29.782Z,35.30
2023-04-09T15:47:35.384Z,34.00
2023-04-09T15:49:41.012Z,35.60
2023-04-09T15:51:46.045Z,37.40
2023-04-09T15:53:51.161Z,39.10
2023-04-09T15:55:56.194Z,38.40
2023-04-09T15:58:04.064Z,41.00
2023-04-09T16:00:12.333Z,39.90
2023-04-09T16:02:17.626Z,40.40
2023-04-09T16:04:22.695Z,38.90
2023-04-09T16:06:28.115Z,37.50
2023-04-09T16:08:33.131Z,37.70
2023-04-09T16:10:38.474Z,38.30
2023-04-09T16:12:43.497Z,36.20
2023-04-09T16:14:51.635Z,38.80
2023-04-09T16:16:56.702Z,38.60
2023-04-09T16:19:01.815Z,39.70
2023-04-09T16:21:08.269Z,38.90
2023-04-09T16:23:13.287Z,37.40
2023-04-09T16:25:18.326Z,37.60
2023-04-09T16:27:23.470Z,38.50
2023-04-09T16:29:28.533Z,39.10
2023-04-09T16:31:36.480Z,38.00
2023-04-09T16:33:41.640Z,38.40
2023-04-09T16:35:47.148Z,38.20
2023-04-09T16:37:52.537Z,34.60
2023-04-09T16:39:58.220Z,37.50
2023-04-09T16:42:03.344Z,36.40
2023-04-09T16:44:08.986Z,36.00
2023-04-09T16:46:14.161Z,36.20
2023-04-09T16:48:21.791Z,32.10
2023-04-09T16:50:27.981Z,33.20
2023-04-09T16:52:35.460Z,31.90
2023-04-09T16:54:40.547Z,31.20
2023-04-09T16:56:45.675Z,30.90
2023-04-09T16:58:50.782Z,32.80
2023-04-09T17:00:55.979Z,33.10
2023-04-09T17:03:02.307Z,33.00
2023-04-09T17:05:11.699Z,33.50
2023-04-09T17:07:17.901Z,33.30
2023-04-09T17:09:22.893Z,33.90
2023-04-09T17:11:27.930Z,35.70
2023-04-09T17:13:36.066Z,35.20
2023-04-09T17:15:41.634Z,35.10
2023-04-09T17:17:51.512Z,34.20
2023-04-09T17:19:58.521Z,35.90
2023-04-09T17:22:06.468Z,37.70
2023-04-09T17:24:11.539Z,39.00
2023-04-09T17:26:17.026Z,38.40
2023-04-09T17:28:22.833Z,38.90
2023-04-09T17:30:27.837Z,39.90
2023-04-09T17:32:32.917Z,38.80
2023-04-09T17:34:37.991Z,39.50
2023-04-09T17:36:43.202Z,40.70
2023-04-09T17:38:53.991Z,42.70
2023-04-09T17:40:59.162Z,43.50
2023-04-09T17:43:04.285Z,44.40
2023-04-09T17:45:11.946Z,45.90
2023-04-09T17:47:17.222Z,47.10
2023-04-09T17:49:22.525Z,47.40
2023-04-09T17:51:27.867Z,46.60
2023-04-09T17:53:33.201Z,47.90
2023-04-09T17:55:40.770Z,50.30
2023-04-09T17:57:46.137Z,50.20
2023-04-09T17:59:52.291Z,50.70
2023-04-09T18:01:57.906Z,52.40
2023-04-09T18:04:03.975Z,53.40
2023-04-09T18:06:10.155Z,53.40
2023-04-09T18:08:15.885Z,56.10
2023-04-09T18:10:21.424Z,57.40
2023-04-09T18:12:29.223Z,56.30
2023-04-09T18:14:34.752Z,58.80
2023-04-09T18:16:42.161Z,58.40
2023-04-09T18:18:47.477Z,59.40
2023-04-09T18:20:53.738Z,59.80
2023-04-09T18:22:58.742Z,62.10
2023-04-09T18:25:04.333Z,64.30
2023-04-09T18:27:09.584Z,64.40
2023-04-09T18:29:17.449Z,65.40
2023-04-09T18:31:22.605Z,63.50
2023-04-09T18:33:27.906Z,63.60
2023-04-09T18:35:32.939Z,65.60
2023-04-09T18:37:38.438Z,65.60
2023-04-09T18:39:43.734Z,67.20
2023-04-09T18:41:49.030Z,67.40
2023-04-09T18:43:54.077Z,68.70
2023-04-09T18:46:01.864Z,70.60
2023-04-09T18:48:08.357Z,71.20
2023-04-09T18:50:15.936Z,74.50
2023-04-09T18:52:20.927Z,75.90
2023-04-09T18:54:26.310Z,76.70
2023-04-09T18:56:31.639Z,76.80
2023-04-09T18:58:36.848Z,77.40
2023-04-09T19:00:42.346Z,78.60
2023-04-09T19:02:50.078Z,79.30
2023-04-09T19:04:56.483Z,78.90
2023-04-09T19:07:01.498Z,79.40
2023-04-09T19:09:06.806Z,79.50
2023-04-09T19:11:12.759Z,78.60
2023-04-09T19:13:18.409Z,77.90
2023-04-09T19:15:24.230Z,78.80
2023-04-09T19:17:29.553Z,79.50
2023-04-09T19:19:37.588Z,79.80
2023-04-09T19:21:42.650Z,79.90
2023-04-09T19:23:48.260Z,80.30
2023-04-09T19:25:55.382Z,80.90
2023-04-09T19:28:00.547Z,80.20
2023-04-09T19:30:05.936Z,80.50
2023-04-09T19:32:13.384Z,80.50
2023-04-09T19:34:18.480Z,81.30
2023-04-09T19:36:26.952Z,81.60
2023-04-09T19:38:32.092Z,82.60
2023-04-09T19:40:37.348Z,83.10
2023-04-09T19:42:42.374Z,83.60
2023-04-09T19:44:47.580Z,84.50
2023-04-09T19:46:52.636Z,84.40
2023-04-09T19:48:57.792Z,84.20
2023-04-09T19:51:03.286Z,83.90
2023-04-09T19:53:10.957Z,84.70
2023-04-09T19:55:16.031Z,84.80
2023-04-09T19:57:21.010Z,84.90
2023-04-09T19:59:26.315Z,84.90
2023-04-09T20:01:31.555Z,84.30
2023-04-09T20:03:36.716Z,84.40
2023-04-09T20:05:41.808Z,84.80
2023-04-09T20:07:47.114Z,84.70
2023-04-09T20:09:54.803Z,84.80
2023-04-09T20:12:04.496Z,85.20
2023-04-09T20:14:11.320Z,85.40
2023-04-09T20:16:16.729Z,86.10
2023-04-09T20:18:21.782Z,85.90
2023-04-09T20:20:27.369Z,85.90
2023-04-09T20:22:32.382Z,85.80
2023-04-09T20:24:38.487Z,85.90
2023-04-09T20:26:46.505Z,85.50
2023-04-09T20:28:51.790Z,85.90
2023-04-09T20:30:57.003Z,86.00
2023-04-09T20:33:02.201Z,85.40
2023-04-09T20:35:09.498Z,84.60
2023-04-09T20:37:14.880Z,85.00
2023-04-09T20:39:19.955Z,85.10
2023-04-09T20:41:24.971Z,85.30
2023-04-09T20:43:32.752Z,85.70
2023-04-09T20:45:37.850Z,85.70
2023-04-09T20:47:43.225Z,85.80
2023-04-09T20:49:49.154Z,86.60
2023-04-09T20:51:54.195Z,86.50
2023-04-09T20:54:01.630Z,86.80
2023-04-09T20:56:07.442Z,86.80
2023-04-09T20:58:12.709Z,86.60
2023-04-09T21:00:20.744Z,86.30
2023-04-09T21:02:26.007Z,86.70
2023-04-09T21:04:31.329Z,86.70
2023-04-09T21:06:37.261Z,86.90
2023-04-09T21:08:43.737Z,86.50
2023-04-09T21:10:48.745Z,86.60
2023-04-09T21:12:53.876Z,86.80
2023-04-09T21:14:58.925Z,86.70
2023-04-09T21:17:06.976Z,87.60
2023-04-09T21:19:12.070Z,87.60
2023-04-09T21:21:17.194Z,88.00
2023-04-09T21:23:22.200Z,87.90
2023-04-09T21:25:30.379Z,87.70
2023-04-09T21:27:35.659Z,87.40
2023-04-09T21:29:40.821Z,87.80
2023-04-09T21:31:45.842Z,88.00
2023-04-09T21:33:53.426Z,88.40
2023-04-09T21:35:58.549Z,88.00
2023-04-09T21:38:03.719Z,87.70
2023-04-09T21:40:12.980Z,87.10
2023-04-09T21:42:18.000Z,88.30
2023-04-09T21:44:23.092Z,88.40
2023-04-09T21:46:28.288Z,88.20
2023-04-09T21:48:33.921Z,88.20
2023-04-09T21:50:41.861Z,88.70
2023-04-09T21:52:48.567Z,88.70
2023-04-09T21:54:53.583Z,88.50
2023-04-09T21:56:58.605Z,89.10
2023-04-09T21:59:03.787Z,89.30
2023-04-09T22:01:22.426Z,89.10
2023-04-09T22:03:35.059Z,88.90
2023-04-09T22:05:42.778Z,89.20
2023-04-09T22:07:47.799Z,90.30
2023-04-09T22:09:53.047Z,90.10
2023-04-09T22:11:58.635Z,90.80
2023-04-09T22:14:03.672Z,90.10
2023-04-09T22:16:10.344Z,89.80
2023-04-09T22:18:15.838Z,89.70
2023-04-09T22:20:20.902Z,90.20
2023-04-09T22:22:28.533Z,90.80
2023-04-09T22:24:34.174Z,91.20
2023-04-09T22:26:41.025Z,90.10
2023-04-09T22:28:46.244Z,90.40
2023-04-09T22:30:51.629Z,90.40
2023-04-09T22:32:56.669Z,89.90
2023-04-09T22:35:01.738Z,90.90
2023-04-09T22:37:06.793Z,90.90
2023-04-09T22:39:14.667Z,91.50
2023-04-09T22:41:20.168Z,91.10
2023-04-09T22:43:25.552Z,90.70
2023-04-09T22:45:32.342Z,90.80
2023-04-09T22:47:37.398Z,91.20
2023-04-09T22:49:42.889Z,90.80
2023-04-09T22:51:48.590Z,90.70
2023-04-09T22:53:53.579Z,91.10
2023-04-09T22:56:02.208Z,91.20
2023-04-09T22:58:07.501Z,91.40
2023-04-09T23:00:13.657Z,91.60
2023-04-09T23:02:18.767Z,91.50
2023-04-09T23:04:25.463Z,91.30
2023-04-09T23:06:31.061Z,91.30
2023-04-09T23:10:41.408Z,90.80
2023-04-09T23:12:49.457Z,90.50
2023-04-09T23:14:54.496Z,90.20
2023-04-09T23:16:59.546Z,91.40
2023-04-09T23:19:04.792Z,90.90
2023-04-09T23:21:11.022Z,91.10
2023-04-09T23:23:16.190Z,91.40
2023-04-09T23:25:21.988Z,92.10
2023-04-09T23:27:28.939Z,92.30
2023-04-09T23:29:36.953Z,92.60
2023-04-09T23:31:41.995Z,92.50
2023-04-09T23:33:47.247Z,92.50
2023-04-09T23:35:52.333Z,92.50
2023-04-09T23:37:58.646Z,92.10
2023-04-09T23:40:03.994Z,92.10
2023-04-09T23:42:09.016Z,92.30
2023-04-09T23:44:14.021Z,92.30
2023-04-09T23:46:21.918Z,92.30
2023-04-09T23:48:26.964Z,92.20
2023-04-09T23:50:31.965Z,91.70
2023-04-09T23:52:40.369Z,92.70
2023-04-09T23:54:51.966Z,92.40
2023-04-09T23:56:58.223Z,91.90
2023-04-09T23:59:03.230Z,92.20
